ولاية سيدي بلعباس, الجزائر

12:25 PM CET on سبتهبر 16, 2014 (GMT +0100)
Es Senia | Change Station
CLOSE
Current Station
Airport
Location: Oran,
Elevation: 295 ft
Nearby Weather Stations

Elev 295 ft 35.63 °N, 0.60 °W | Updated 25 minutes ago

Clear
صافية
86 °F
Feels Like 88 °F
N
10
ريح متغير ريح from شمال

هذا اليوم
High -- | Low -- °F
--% Chance of Precip.
Yesterday
High -- | Low -- °F
Precip. -- في
6:45 AM 7:08 PM
الربع الآخر, 46% visible
الضغط 29.80 في
وضوح الرؤية -9999.0 أميال
سحابات
مؤشر الحرارة 88 °F
نقطة الندى 66 °F
الرطوبة 51%
Rainfall 0.00 في
عمق الثلج Not available.
الأشعة فوق البنفسجية Not available.
Pollen Not available.
جودة الهواء Not available.
Flu Activity Not available.
METAR DAOO 161100Z 35009KT CAVOK 30/19 Q1009

More Conditions Fewer Conditions

الضغط 29.80 في
وضوح الرؤية -9999.0 أميال
سحابات
مؤشر الحرارة 88 °F
نقطة الندى 66 °F
الرطوبة 51%
Rainfall 0.00 في
عمق الثلج Not available.
الأشعة فوق البنفسجية Not available.
Pollen Not available.
جودة الهواء Not available.
Flu Activity Not available.
METAR DAOO 161100Z 35009KT CAVOK 30/19 Q1009

More Conditions Fewer Conditions

10-Day Weather Forecast

Almanac

علم الفلك

Sep. 16, 2014 Rise Set
Actual Time 6:45 AM CET 7:08 PM CET
Civil Twilight 6:20 AM CET 7:33 PM CET
Nautical Twilight 5:50 AM CET 8:03 PM CET
Astronomical Twilight 5:20 AM CET 8:33 PM CET
قمر لايوجد طلوع للقمر 2:10 PM CET
Length Of Visible Light 13h 13m
طول الیوم
12h 22m
Tomorrow will be 2m 11s shorter.
الربع الآخر, 46% of the Moon is Illuminated
هذا اليوم
الربع الآخر
Sep 24
New
Oct 1
الربع الاول
Oct 8
بدر
Oct 15
الربع الآخر

Yesterday's Extremes

Country Highs Country Lows

Community

WunderPhotos

Upload Photos

1,753,724 photos uploaded!

WunderBlogs® & News

By Dr. Jeff Masters
Director of Meteorology, Weather Underground
By Kari Strenfel
Meteorologist, Weather Underground
By Christopher C. Burt
Weather Historian, Weather Underground
September 16, 2014
September 16, 2014
September 16, 2014

Nearby

جودة الهواء

Not available.

عمق الثلج

Not available.

Earthquake Activity

City Distance Mag. Time & Date
No recent earthquake activity has been reported nearby.
Minimum magnitude displayed is 2.5.

Coastal Water Temperatures

مكان درجات الحرارة
No Stations Reporting

Nearby Weather Stations